sensor_id;sensor_type;location;lat;lon;timestamp;pressure;altitude;pressure_sealevel;temperature;humidity
4133;BME280;2080;51.038;7.008;2023-03-31T00:01:49;75032.84;;;-142.53;91.95
4133;BME280;2080;51.038;7.008;2023-03-31T00:04:16;75038.66;;;-142.53;90.94
4133;BME280;2080;51.038;7.008;2023-03-31T00:06:42;75027.03;;;-142.53;90.98
4133;BME280;2080;51.038;7.008;2023-03-31T00:09:15;75015.38;;;-142.53;90.68
4133;BME280;2080;51.038;7.008;2023-03-31T00:11:49;75011.50;;;-142.53;92.69
4133;BME280;2080;51.038;7.008;2023-03-31T00:14:19;75003.72;;;-142.53;92.72
4133;BME280;2080;51.038;7.008;2023-03-31T00:16:45;74992.06;;;-142.53;93.22
4133;BME280;2080;51.038;7.008;2023-03-31T00:19:14;74988.19;;;-142.53;92.97
4133;BME280;2080;51.038;7.008;2023-03-31T00:21:44;74980.41;;;-142.53;92.59
4133;BME280;2080;51.038;7.008;2023-03-31T00:24:13;74978.47;;;-142.53;92.87
4133;BME280;2080;51.038;7.008;2023-03-31T00:26:39;74986.25;;;-142.53;94.17
4133;BME280;2080;51.038;7.008;2023-03-31T00:29:06;74968.78;;;-142.53;94.83
4133;BME280;2080;51.038;7.008;2023-03-31T00:31:34;74957.13;;;-142.53;95.40
4133;BME280;2080;51.038;7.008;2023-03-31T00:34:00;74949.38;;;-142.53;94.73
4133;BME280;2080;51.038;7.008;2023-03-31T00:36:26;74961.00;;;-142.53;95.23
4133;BME280;2080;51.038;7.008;2023-03-31T00:38:55;74968.78;;;-142.53;96.87
4133;BME280;2080;51.038;7.008;2023-03-31T00:41:25;74957.13;;;-142.53;97.60
4133;BME280;2080;51.038;7.008;2023-03-31T00:49:30;74914.41;;;-142.53;98.77
4133;BME280;2080;51.038;7.008;2023-03-31T00:52:15;74914.41;;;-142.53;99.18
4133;BME280;2080;51.038;7.008;2023-03-31T00:54:46;74929.94;;;-142.53;100.00
4133;BME280;2080;51.038;7.008;2023-03-31T00:57:16;74945.47;;;-142.53;100.00
4133;BME280;2080;51.038;7.008;2023-03-31T00:59:51;74951.31;;;-142.53;100.00
4133;BME280;2080;51.038;7.008;2023-03-31T01:02:18;74945.47;;;-142.53;100.00
4133;BME280;2080;51.038;7.008;2023-03-31T01:04:53;74937.72;;;-142.53;100.00
4133;BME280;2080;51.038;7.008;2023-03-31T01:07:26;74943.53;;;-142.53;100.00
4133;BME280;2080;51.038;7.008;2023-03-31T01:09:57;74926.06;;;-142.53;100.00
4133;BME280;2080;51.038;7.008;2023-03-31T01:12:25;74933.81;;;-142.53;100.00
4133;BME280;2080;51.038;7.008;2023-03-31T01:14:54;74914.41;;;-142.53;100.00
4133;BME280;2080;51.038;7.008;2023-03-31T01:17:21;74910.53;;;-142.53;100.00
4133;BME280;2080;51.038;7.008;2023-03-31T01:25:34;74912.47;;;-142.53;100.00
4133;BME280;2080;51.038;7.008;2023-03-31T01:41:40;74922.19;;;-142.53;100.00
4133;BME280;2080;51.038;7.008;2023-03-31T01:44:38;74929.94;;;-142.53;100.00
4133;BME280;2080;51.038;7.008;2023-03-31T01:47:50;74931.88;;;-142.53;100.00
4133;BME280;2080;51.038;7.008;2023-03-31T01:50:21;74924.13;;;-142.53;100.00
4133;BME280;2080;51.038;7.008;2023-03-31T01:53:01;74908.59;;;-142.53;100.00
4133;BME280;2080;51.038;7.008;2023-03-31T01:55:34;74910.53;;;-142.53;100.00
4133;BME280;2080;51.038;7.008;2023-03-31T01:58:10;74898.88;;;-142.53;100.00
4133;BME280;2080;51.038;7.008;2023-03-31T02:00:47;74898.88;;;-142.53;100.00
4133;BME280;2080;51.038;7.008;2023-03-31T02:03:28;74887.22;;;-142.53;100.00
4133;BME280;2080;51.038;7.008;2023-03-31T02:06:04;74887.22;;;-142.53;100.00
4133;BME280;2080;51.038;7.008;2023-03-31T02:08:42;74879.47;;;-142.53;100.00
4133;BME280;2080;51.038;7.008;2023-03-31T02:11:09;74867.81;;;-142.53;100.00
4133;BME280;2080;51.038;7.008;2023-03-31T02:13:36;74863.94;;;-142.53;100.00
4133;BME280;2080;51.038;7.008;2023-03-31T02:16:08;74879.47;;;-142.53;100.00
4133;BME280;2080;51.038;7.008;2023-03-31T02:18:36;74879.47;;;-142.53;100.00
4133;BME280;2080;51.038;7.008;2023-03-31T02:21:04;74879.47;;;-142.53;100.00
4133;BME280;2080;51.038;7.008;2023-03-31T02:23:31;74873.63;;;-142.53;100.00
4133;BME280;2080;51.038;7.008;2023-03-31T02:26:01;74865.88;;;-142.53;100.00
4133;BME280;2080;51.038;7.008;2023-03-31T02:28:29;74871.69;;;-142.53;100.00
4133;BME280;2080;51.038;7.008;2023-03-31T02:31:17;74863.94;;;-142.53;100.00
4133;BME280;2080;51.038;7.008;2023-03-31T02:33:47;74856.16;;;-142.53;100.00
4133;BME280;2080;51.038;7.008;2023-03-31T02:36:12;74856.16;;;-142.53;100.00
4133;BME280;2080;51.038;7.008;2023-03-31T02:39:01;74844.53;;;-142.53;100.00
4133;BME280;2080;51.038;7.008;2023-03-31T02:41:34;74840.63;;;-142.53;100.00
4133;BME280;2080;51.038;7.008;2023-03-31T02:44:00;74836.75;;;-142.53;100.00
4133;BME280;2080;51.038;7.008;2023-03-31T02:46:26;74832.88;;;-142.53;100.00
4133;BME280;2080;51.038;7.008;2023-03-31T02:48:57;74821.22;;;-142.53;100.00
4133;BME280;2080;51.038;7.008;2023-03-31T02:54:39;74805.69;;;-142.53;100.00
4133;BME280;2080;51.038;7.008;2023-03-31T02:57:23;74801.81;;;-142.53;100.00
4133;BME280;2080;51.038;7.008;2023-03-31T03:05:26;74774.63;;;-142.53;100.00
4133;BME280;2080;51.038;7.008;2023-03-31T03:19:05;74778.50;;;-142.53;100.00
4133;BME280;2080;51.038;7.008;2023-03-31T03:21:32;74790.16;;;-142.53;100.00
4133;BME280;2080;51.038;7.008;2023-03-31T03:23:58;74782.41;;;-142.53;100.00
4133;BME280;2080;51.038;7.008;2023-03-31T03:26:24;74770.75;;;-142.53;100.00
4133;BME280;2080;51.038;7.008;2023-03-31T03:28:55;74784.34;;;-142.53;100.00
4133;BME280;2080;51.038;7.008;2023-03-31T03:31:23;74782.41;;;-142.53;100.00
4133;BME280;2080;51.038;7.008;2023-03-31T03:33:52;74778.50;;;-142.53;100.00
4133;BME280;2080;51.038;7.008;2023-03-31T03:36:18;74778.50;;;-142.53;100.00
4133;BME280;2080;51.038;7.008;2023-03-31T03:38:43;74772.69;;;-142.53;100.00
4133;BME280;2080;51.038;7.008;2023-03-31T03:41:09;74766.88;;;-142.53;100.00
4133;BME280;2080;51.038;7.008;2023-03-31T03:43:35;74762.97;;;-142.53;100.00
4133;BME280;2080;51.038;7.008;2023-03-31T03:46:00;74755.22;;;-142.53;100.00
4133;BME280;2080;51.038;7.008;2023-03-31T03:48:28;74747.44;;;-142.53;100.00
4133;BME280;2080;51.038;7.008;2023-03-31T03:50:59;74755.22;;;-142.53;100.00
4133;BME280;2080;51.038;7.008;2023-03-31T03:53:24;74755.22;;;-142.53;100.00
4133;BME280;2080;51.038;7.008;2023-03-31T03:55:52;74735.81;;;-142.53;100.00
4133;BME280;2080;51.038;7.008;2023-03-31T03:58:18;74743.56;;;-142.53;100.00
4133;BME280;2080;51.038;7.008;2023-03-31T04:00:44;74735.81;;;-142.53;100.00
4133;BME280;2080;51.038;7.008;2023-03-31T04:03:10;74731.91;;;-142.53;100.00
4133;BME280;2080;51.038;7.008;2023-03-31T04:05:36;74731.91;;;-142.53;100.00
4133;BME280;2080;51.038;7.008;2023-03-31T04:08:01;74728.03;;;-142.53;100.00
4133;BME280;2080;51.038;7.008;2023-03-31T04:10:27;74728.03;;;-142.53;100.00
4133;BME280;2080;51.038;7.008;2023-03-31T04:12:53;74716.38;;;-142.53;100.00
4133;BME280;2080;51.038;7.008;2023-03-31T04:15:18;74712.50;;;-142.53;100.00
4133;BME280;2080;51.038;7.008;2023-03-31T04:17:43;74708.63;;;-142.53;100.00
4133;BME280;2080;51.038;7.008;2023-03-31T04:20:16;74696.97;;;-142.53;100.00
4133;BME280;2080;51.038;7.008;2023-03-31T04:22:44;74693.09;;;-142.53;100.00
4133;BME280;2080;51.038;7.008;2023-03-31T04:25:13;74683.38;;;-142.53;100.00
4133;BME280;2080;51.038;7.008;2023-03-31T04:27:45;74673.69;;;-142.53;100.00
4133;BME280;2080;51.038;7.008;2023-03-31T04:30:20;74673.69;;;-142.53;100.00
4133;BME280;2080;51.038;7.008;2023-03-31T04:32:54;74669.78;;;-142.53;100.00
4133;BME280;2080;51.038;7.008;2023-03-31T04:35:22;74658.16;;;-142.53;100.00
4133;BME280;2080;51.038;7.008;2023-03-31T04:37:52;74656.19;;;-142.53;100.00
4133;BME280;2080;51.038;7.008;2023-03-31T04:40:23;74632.91;;;-142.53;100.00
4133;BME280;2080;51.038;7.008;2023-03-31T04:42:49;74634.84;;;-142.53;100.00
4133;BME280;2080;51.038;7.008;2023-03-31T04:45:15;74638.72;;;-142.53;100.00
4133;BME280;2080;51.038;7.008;2023-03-31T04:47:43;74644.56;;;-142.53;100.00
4133;BME280;2080;51.038;7.008;2023-03-31T04:50:11;74634.84;;;-142.53;100.00
4133;BME280;2080;51.038;7.008;2023-03-31T04:52:37;74640.69;;;-142.53;100.00
4133;BME280;2080;51.038;7.008;2023-03-31T04:55:03;74646.50;;;-142.53;100.00
4133;BME280;2080;51.038;7.008;2023-03-31T04:57:28;74640.69;;;-142.53;100.00
4133;BME280;2080;51.038;7.008;2023-03-31T04:59:53;74638.72;;;-142.53;100.00
4133;BME280;2080;51.038;7.008;2023-03-31T05:02:19;74638.72;;;-142.53;100.00
4133;BME280;2080;51.038;7.008;2023-03-31T05:04:50;74654.25;;;-142.53;100.00
4133;BME280;2080;51.038;7.008;2023-03-31T05:07:17;74638.72;;;-142.53;100.00
4133;BME280;2080;51.038;7.008;2023-03-31T05:09:43;74632.91;;;-142.53;100.00
4133;BME280;2080;51.038;7.008;2023-03-31T05:12:08;74638.72;;;-142.53;100.00
4133;BME280;2080;51.038;7.008;2023-03-31T05:14:34;74636.78;;;-142.53;100.00
4133;BME280;2080;51.038;7.008;2023-03-31T05:16:59;74642.63;;;-142.53;100.00
4133;BME280;2080;51.038;7.008;2023-03-31T05:19:25;74621.25;;;-142.53;100.00
4133;BME280;2080;51.038;7.008;2023-03-31T05:21:52;74623.19;;;-142.53;100.00
4133;BME280;2080;51.038;7.008;2023-03-31T05:24:18;74619.31;;;-142.53;100.00
4133;BME280;2080;51.038;7.008;2023-03-31T05:26:45;74609.63;;;-142.53;100.00
4133;BME280;2080;51.038;7.008;2023-03-31T05:29:17;74603.78;;;-142.53;100.00
4133;BME280;2080;51.038;7.008;2023-03-31T05:31:45;74592.13;;;-142.53;100.00
4133;BME280;2080;51.038;7.008;2023-03-31T05:34:10;74576.59;;;-142.53;100.00
4133;BME280;2080;51.038;7.008;2023-03-31T05:36:35;74578.56;;;-142.53;100.00
4133;BME280;2080;51.038;7.008;2023-03-31T05:39:04;74584.38;;;-142.53;100.00
4133;BME280;2080;51.038;7.008;2023-03-31T05:41:33;74574.66;;;-142.53;100.00
4133;BME280;2080;51.038;7.008;2023-03-31T05:44:01;74561.06;;;-142.53;100.00
4133;BME280;2080;51.038;7.008;2023-03-31T05:46:27;74564.97;;;-142.53;100.00
4133;BME280;2080;51.038;7.008;2023-03-31T05:48:52;74561.06;;;-142.53;100.00
4133;BME280;2080;51.038;7.008;2023-03-31T05:51:20;74545.56;;;-142.53;100.00
4133;BME280;2080;51.038;7.008;2023-03-31T05:53:45;74553.31;;;-142.53;100.00
4133;BME280;2080;51.038;7.008;2023-03-31T05:56:11;74551.38;;;-142.53;100.00
4133;BME280;2080;51.038;7.008;2023-03-31T05:58:39;74530.03;;;-142.53;100.00
4133;BME280;2080;51.038;7.008;2023-03-31T06:01:06;74533.91;;;-142.53;100.00
4133;BME280;2080;51.038;7.008;2023-03-31T06:03:33;74518.38;;;-142.53;100.00
4133;BME280;2080;51.038;7.008;2023-03-31T06:05:58;74518.38;;;-142.53;100.00
4133;BME280;2080;51.038;7.008;2023-03-31T06:08:27;74530.03;;;-142.53;100.00
4133;BME280;2080;51.038;7.008;2023-03-31T06:10:54;74533.91;;;-142.53;100.00
4133;BME280;2080;51.038;7.008;2023-03-31T06:13:20;74514.50;;;-142.53;100.00
4133;BME280;2080;51.038;7.008;2023-03-31T06:15:55;74514.50;;;-142.53;100.00
4133;BME280;2080;51.038;7.008;2023-03-31T06:18:21;74502.84;;;-142.53;100.00
4133;BME280;2080;51.038;7.008;2023-03-31T06:20:46;74495.06;;;-142.53;100.00
4133;BME280;2080;51.038;7.008;2023-03-31T06:23:14;74487.31;;;-142.53;100.00
4133;BME280;2080;51.038;7.008;2023-03-31T06:25:40;74475.66;;;-142.53;100.00
4133;BME280;2080;51.038;7.008;2023-03-31T06:28:05;74487.31;;;-142.53;100.00
4133;BME280;2080;51.038;7.008;2023-03-31T06:30:31;74487.31;;;-142.53;100.00
4133;BME280;2080;51.038;7.008;2023-03-31T06:32:59;74471.78;;;-142.53;100.00
4133;BME280;2080;51.038;7.008;2023-03-31T06:35:24;74491.19;;;-142.53;100.00
4133;BME280;2080;51.038;7.008;2023-03-31T06:37:50;74495.06;;;-142.53;100.00
4133;BME280;2080;51.038;7.008;2023-03-31T06:40:18;74491.19;;;-142.53;100.00
4133;BME280;2080;51.038;7.008;2023-03-31T06:42:43;74500.91;;;-142.53;100.00
4133;BME280;2080;51.038;7.008;2023-03-31T06:45:09;74502.84;;;-142.53;100.00
4133;BME280;2080;51.038;7.008;2023-03-31T06:47:35;74506.72;;;-142.53;100.00
4133;BME280;2080;51.038;7.008;2023-03-31T06:50:03;74522.25;;;-142.53;100.00
4133;BME280;2080;51.038;7.008;2023-03-31T06:52:34;74510.59;;;-142.53;100.00
4133;BME280;2080;51.038;7.008;2023-03-31T06:55:01;74530.03;;;-142.53;100.00
4133;BME280;2080;51.038;7.008;2023-03-31T06:57:27;74495.06;;;-142.53;100.00
4133;BME280;2080;51.038;7.008;2023-03-31T06:59:55;74495.06;;;-142.53;100.00
4133;BME280;2080;51.038;7.008;2023-03-31T07:02:21;74473.72;;;-142.53;100.00
4133;BME280;2080;51.038;7.008;2023-03-31T07:04:48;74464.00;;;-142.53;100.00
4133;BME280;2080;51.038;7.008;2023-03-31T07:07:14;74448.47;;;-142.53;100.00
4133;BME280;2080;51.038;7.008;2023-03-31T07:09:41;74429.06;;;-142.53;100.00
4133;BME280;2080;51.038;7.008;2023-03-31T07:12:07;74425.19;;;-142.53;100.00
4133;BME280;2080;51.038;7.008;2023-03-31T07:14:34;74394.13;;;-142.53;100.00
4133;BME280;2080;51.038;7.008;2023-03-31T07:17:00;74366.94;;;-142.53;100.00
4133;BME280;2080;51.038;7.008;2023-03-31T07:19:29;74355.31;;;-142.53;100.00
4133;BME280;2080;51.038;7.008;2023-03-31T07:22:00;74347.53;;;-142.53;99.82
4133;BME280;2080;51.038;7.008;2023-03-31T07:24:25;74353.38;;;-142.53;99.63
4133;BME280;2080;51.038;7.008;2023-03-31T07:26:51;74332.00;;;-142.53;99.00
4133;BME280;2080;51.038;7.008;2023-03-31T07:29:16;74312.59;;;-142.53;98.05
4133;BME280;2080;51.038;7.008;2023-03-31T07:31:46;74302.91;;;-142.53;96.40
4133;BME280;2080;51.038;7.008;2023-03-31T07:34:16;74285.44;;;-142.53;94.76
4133;BME280;2080;51.038;7.008;2023-03-31T07:36:43;74273.78;;;-142.53;94.45
4133;BME280;2080;51.038;7.008;2023-03-31T07:39:09;74238.84;;;-142.53;93.63
4133;BME280;2080;51.038;7.008;2023-03-31T07:41:34;74244.66;;;-142.53;92.27
4133;BME280;2080;51.038;7.008;2023-03-31T07:44:02;74201.97;;;-142.53;91.25
4133;BME280;2080;51.038;7.008;2023-03-31T07:46:32;74168.97;;;-142.53;90.20
4133;BME280;2080;51.038;7.008;2023-03-31T07:49:00;74149.56;;;-142.53;87.46
4133;BME280;2080;51.038;7.008;2023-03-31T07:51:27;74149.56;;;-142.53;87.06
4133;BME280;2080;51.038;7.008;2023-03-31T07:53:55;74116.56;;;-142.53;86.63
4133;BME280;2080;51.038;7.008;2023-03-31T07:56:24;74087.44;;;-142.53;84.43
4133;BME280;2080;51.038;7.008;2023-03-31T07:58:52;74087.44;;;-142.53;83.44
4133;BME280;2080;51.038;7.008;2023-03-31T08:01:20;74083.56;;;-142.53;81.38
4133;BME280;2080;51.038;7.008;2023-03-31T08:03:52;74036.97;;;-142.53;81.71
4133;BME280;2080;51.038;7.008;2023-03-31T08:06:21;74002.03;;;-142.53;81.06
4133;BME280;2080;51.038;7.008;2023-03-31T08:08:48;73978.75;;;-142.53;79.69
4133;BME280;2080;51.038;7.008;2023-03-31T08:11:14;73955.44;;;-142.53;78.67
4133;BME280;2080;51.038;7.008;2023-03-31T08:13:40;73974.84;;;-142.53;77.64
4133;BME280;2080;51.038;7.008;2023-03-31T08:16:06;73959.34;;;-142.53;77.15
4133;BME280;2080;51.038;7.008;2023-03-31T08:18:33;73978.75;;;-142.53;77.14
4133;BME280;2080;51.038;7.008;2023-03-31T08:21:01;74009.78;;;-142.53;77.42
4133;BME280;2080;51.038;7.008;2023-03-31T08:23:27;74040.84;;;-142.53;78.36
4133;BME280;2080;51.038;7.008;2023-03-31T08:25:52;74048.63;;;-142.53;78.90
4133;BME280;2080;51.038;7.008;2023-03-31T08:28:20;74050.56;;;-142.53;79.60
4133;BME280;2080;51.038;7.008;2023-03-31T08:30:50;74052.50;;;-142.53;79.59
4133;BME280;2080;51.038;7.008;2023-03-31T08:33:16;74044.72;;;-142.53;78.16
4133;BME280;2080;51.038;7.008;2023-03-31T08:35:42;74040.84;;;-142.53;79.52
4133;BME280;2080;51.038;7.008;2023-03-31T08:38:10;74044.72;;;-142.53;79.28
4133;BME280;2080;51.038;7.008;2023-03-31T08:40:39;74021.44;;;-142.53;78.32
4133;BME280;2080;51.038;7.008;2023-03-31T08:43:10;73967.09;;;-142.53;77.65
4133;BME280;2080;51.038;7.008;2023-03-31T08:45:44;73943.81;;;-142.53;78.10
4133;BME280;2080;51.038;7.008;2023-03-31T08:50:52;73963.22;;;-142.53;76.44
4133;BME280;2080;51.038;7.008;2023-03-31T08:53:36;73972.91;;;-142.53;75.07
4133;BME280;2080;51.038;7.008;2023-03-31T08:56:08;73970.97;;;-142.53;75.24
4133;BME280;2080;51.038;7.008;2023-03-31T08:58:49;73920.50;;;-142.53;74.31
4133;BME280;2080;51.038;7.008;2023-03-31T09:01:33;73870.03;;;-142.53;73.66
4133;BME280;2080;51.038;7.008;2023-03-31T09:15:58;73691.50;;;-142.53;63.22
4133;BME280;2080;51.038;7.008;2023-03-31T09:18:28;73641.03;;;-142.53;59.58
4133;BME280;2080;51.038;7.008;2023-03-31T09:21:10;73588.63;;;-142.53;59.55
4133;BME280;2080;51.038;7.008;2023-03-31T09:23:43;73635.22;;;-142.53;58.23
4133;BME280;2080;51.038;7.008;2023-03-31T09:26:40;73660.44;;;-142.53;58.16
4133;BME280;2080;51.038;7.008;2023-03-31T09:29:21;73687.59;;;-142.53;60.97
4133;BME280;2080;51.038;7.008;2023-03-31T09:31:49;73679.84;;;-142.53;60.85
4133;BME280;2080;51.038;7.008;2023-03-31T09:34:23;73707.00;;;-142.53;59.80
4133;BME280;2080;51.038;7.008;2023-03-31T09:36:50;73695.38;;;-142.53;59.92
4133;BME280;2080;51.038;7.008;2023-03-31T09:39:16;73685.66;;;-142.53;59.85
4133;BME280;2080;51.038;7.008;2023-03-31T09:41:44;73707.00;;;-142.53;59.33
4133;BME280;2080;51.038;7.008;2023-03-31T09:46:47;73664.31;;;-142.53;58.76
4133;BME280;2080;51.038;7.008;2023-03-31T09:49:20;73695.38;;;-142.53;56.40
4133;BME280;2080;51.038;7.008;2023-03-31T09:51:57;73722.53;;;-142.53;57.61
4133;BME280;2080;51.038;7.008;2023-03-31T09:54:30;73691.50;;;-142.53;58.24
4133;BME280;2080;51.038;7.008;2023-03-31T09:57:01;73726.41;;;-142.53;55.16
4133;BME280;2080;51.038;7.008;2023-03-31T09:59:32;73747.78;;;-142.53;54.14
4133;BME280;2080;51.038;7.008;2023-03-31T10:04:45;73714.78;;;-142.53;53.45
4133;BME280;2080;51.038;7.008;2023-03-31T10:07:11;73666.25;;;-142.53;54.39
4133;BME280;2080;51.038;7.008;2023-03-31T10:09:40;73641.03;;;-142.53;53.02
4133;BME280;2080;51.038;7.008;2023-03-31T10:12:18;73586.69;;;-142.53;52.26
4133;BME280;2080;51.038;7.008;2023-03-31T10:14:48;73613.84;;;-142.53;51.40
4133;BME280;2080;51.038;7.008;2023-03-31T10:17:19;73553.69;;;-142.53;53.10
4133;BME280;2080;51.038;7.008;2023-03-31T10:20:16;73578.94;;;-142.53;51.01
4133;BME280;2080;51.038;7.008;2023-03-31T10:22:43;73540.09;;;-142.53;51.01
4133;BME280;2080;51.038;7.008;2023-03-31T10:25:16;73606.09;;;-142.53;51.23
4133;BME280;2080;51.038;7.008;2023-03-31T10:27:44;73656.56;;;-142.53;49.73
4133;BME280;2080;51.038;7.008;2023-03-31T10:30:15;73609.97;;;-142.53;51.52
4133;BME280;2080;51.038;7.008;2023-03-31T10:32:45;73617.75;;;-142.53;48.40
4133;BME280;2080;51.038;7.008;2023-03-31T10:35:29;73598.34;;;-142.53;51.00
4133;BME280;2080;51.038;7.008;2023-03-31T10:38:01;73600.28;;;-142.53;48.15
4133;BME280;2080;51.038;7.008;2023-03-31T10:40:30;73575.03;;;-142.53;50.39
4133;BME280;2080;51.038;7.008;2023-03-31T10:43:13;73602.22;;;-142.53;49.77
4133;BME280;2080;51.038;7.008;2023-03-31T10:45:57;73625.50;;;-142.53;48.80
4133;BME280;2080;51.038;7.008;2023-03-31T10:48:28;73590.56;;;-142.53;50.05
4133;BME280;2080;51.038;7.008;2023-03-31T11:07:26;73780.78;;;-142.53;63.62
4133;BME280;2080;51.038;7.008;2023-03-31T11:12:37;73839.00;;;-142.53;61.51
4133;BME280;2080;51.038;7.008;2023-03-31T11:15:24;73831.22;;;-142.53;63.07
4133;BME280;2080;51.038;7.008;2023-03-31T11:37:31;74145.66;;;-142.53;85.97
4133;BME280;2080;51.038;7.008;2023-03-31T11:42:52;73982.63;;;-142.53;83.83
4133;BME280;2080;51.038;7.008;2023-03-31T11:45:23;73928.28;;;-142.53;82.18
4133;BME280;2080;51.038;7.008;2023-03-31T11:47:54;73862.28;;;-142.53;80.23
4133;BME280;2080;51.038;7.008;2023-03-31T11:50:24;73811.81;;;-142.53;77.84
4133;BME280;2080;51.038;7.008;2023-03-31T11:53:02;73806.00;;;-142.53;74.48
4133;BME280;2080;51.038;7.008;2023-03-31T11:55:31;73773.00;;;-142.53;75.32
4133;BME280;2080;51.038;7.008;2023-03-31T11:58:05;73749.72;;;-142.53;74.39
4133;BME280;2080;51.038;7.008;2023-03-31T12:00:38;73714.78;;;-142.53;74.20
4133;BME280;2080;51.038;7.008;2023-03-31T12:06:04;73615.81;;;-142.53;72.02
4133;BME280;2080;51.038;7.008;2023-03-31T12:14:28;73501.28;;;-142.53;67.16
4133;BME280;2080;51.038;7.008;2023-03-31T12:16:59;73520.69;;;-142.53;64.24
4133;BME280;2080;51.038;7.008;2023-03-31T12:19:35;73512.94;;;-142.53;65.65
4133;BME280;2080;51.038;7.008;2023-03-31T12:24:35;73567.28;;;-142.53;63.97
4133;BME280;2080;51.038;7.008;2023-03-31T12:27:12;73557.56;;;-142.53;65.28
4133;BME280;2080;51.038;7.008;2023-03-31T12:29:43;73571.16;;;-142.53;64.71
4133;BME280;2080;51.038;7.008;2023-03-31T12:32:17;73613.84;;;-142.53;64.96
4133;BME280;2080;51.038;7.008;2023-03-31T12:35:21;73664.31;;;-142.53;65.66
4133;BME280;2080;51.038;7.008;2023-03-31T12:43:48;73784.66;;;-142.53;72.10
4133;BME280;2080;51.038;7.008;2023-03-31T12:49:19;73842.88;;;-142.53;69.04
4133;BME280;2080;51.038;7.008;2023-03-31T12:52:10;73858.41;;;-142.53;68.45
4133;BME280;2080;51.038;7.008;2023-03-31T12:57:19;73745.84;;;-142.53;64.24
4133;BME280;2080;51.038;7.008;2023-03-31T13:00:08;73685.66;;;-142.53;64.34
4133;BME280;2080;51.038;7.008;2023-03-31T13:02:41;73699.25;;;-142.53;62.69
4133;BME280;2080;51.038;7.008;2023-03-31T13:08:08;73703.13;;;-142.53;62.85
4133;BME280;2080;51.038;7.008;2023-03-31T13:10:55;73685.66;;;-142.53;59.36
4133;BME280;2080;51.038;7.008;2023-03-31T13:13:22;73707.00;;;-142.53;59.80
4133;BME280;2080;51.038;7.008;2023-03-31T13:15:55;73734.19;;;-142.53;62.32
4133;BME280;2080;51.038;7.008;2023-03-31T13:18:25;73776.88;;;-142.53;61.22
4133;BME280;2080;51.038;7.008;2023-03-31T13:21:04;73798.25;;;-142.53;61.16
4133;BME280;2080;51.038;7.008;2023-03-31T13:23:35;73761.34;;;-142.53;57.14
4133;BME280;2080;51.038;7.008;2023-03-31T13:26:03;73679.84;;;-142.53;56.06
4133;BME280;2080;51.038;7.008;2023-03-31T13:28:39;73714.78;;;-142.53;55.81
4133;BME280;2080;51.038;7.008;2023-03-31T13:31:13;73656.56;;;-142.53;57.01
4133;BME280;2080;51.038;7.008;2023-03-31T13:36:18;73656.56;;;-142.53;52.10
4133;BME280;2080;51.038;7.008;2023-03-31T13:41:41;73668.19;;;-142.53;53.71
4133;BME280;2080;51.038;7.008;2023-03-31T13:49:49;73602.22;;;-142.53;52.29
4133;BME280;2080;51.038;7.008;2023-03-31T13:55:27;73594.44;;;-142.53;51.39
4133;BME280;2080;51.038;7.008;2023-03-31T14:09:09;73386.78;;;-142.53;50.54
4133;BME280;2080;51.038;7.008;2023-03-31T14:11:38;73365.44;;;-142.53;51.20
4133;BME280;2080;51.038;7.008;2023-03-31T14:16:43;73398.44;;;-142.53;51.04
4133;BME280;2080;51.038;7.008;2023-03-31T14:25:18;73423.66;;;-142.53;51.25
4133;BME280;2080;51.038;7.008;2023-03-31T14:27:58;73462.47;;;-142.53;50.65
4133;BME280;2080;51.038;7.008;2023-03-31T14:30:47;73512.94;;;-142.53;50.16
4133;BME280;2080;51.038;7.008;2023-03-31T14:38:22;73633.25;;;-142.53;48.82
4133;BME280;2080;51.038;7.008;2023-03-31T14:40:50;73637.16;;;-142.53;49.11
4133;BME280;2080;51.038;7.008;2023-03-31T14:43:24;73650.72;;;-142.53;49.99
4133;BME280;2080;51.038;7.008;2023-03-31T14:46:05;73675.97;;;-142.53;47.65
4133;BME280;2080;51.038;7.008;2023-03-31T14:48:38;73672.09;;;-142.53;48.72
4133;BME280;2080;51.038;7.008;2023-03-31T14:51:10;73648.78;;;-142.53;49.46
4133;BME280;2080;51.038;7.008;2023-03-31T14:53:36;73641.03;;;-142.53;49.61
4133;BME280;2080;51.038;7.008;2023-03-31T14:56:06;73648.78;;;-142.53;48.63
4133;BME280;2080;51.038;7.008;2023-03-31T14:58:41;73629.38;;;-142.53;50.11
4133;BME280;2080;51.038;7.008;2023-03-31T15:01:08;73609.97;;;-142.53;50.56
4133;BME280;2080;51.038;7.008;2023-03-31T15:03:39;73658.50;;;-142.53;50.66
4133;BME280;2080;51.038;7.008;2023-03-31T15:06:09;73703.13;;;-142.53;47.41
4133;BME280;2080;51.038;7.008;2023-03-31T15:08:35;73714.78;;;-142.53;48.01
4133;BME280;2080;51.038;7.008;2023-03-31T15:11:05;73718.66;;;-142.53;50.84
4133;BME280;2080;51.038;7.008;2023-03-31T15:13:34;73683.72;;;-142.53;49.01
4133;BME280;2080;51.038;7.008;2023-03-31T15:19:26;73693.44;;;-142.53;50.25
4133;BME280;2080;51.038;7.008;2023-03-31T15:22:10;73759.41;;;-142.53;50.21
4133;BME280;2080;51.038;7.008;2023-03-31T15:24:38;73749.72;;;-142.53;51.50
4133;BME280;2080;51.038;7.008;2023-03-31T15:27:05;73757.47;;;-142.53;50.81
4133;BME280;2080;51.038;7.008;2023-03-31T15:32:10;73825.41;;;-142.53;53.11
4133;BME280;2080;51.038;7.008;2023-03-31T15:34:37;73823.47;;;-142.53;52.75
4133;BME280;2080;51.038;7.008;2023-03-31T15:37:08;73827.34;;;-142.53;58.91
4133;BME280;2080;51.038;7.008;2023-03-31T15:39:35;73858.41;;;-142.53;65.29
4133;BME280;2080;51.038;7.008;2023-03-31T15:42:08;73939.91;;;-142.53;74.59
4133;BME280;2080;51.038;7.008;2023-03-31T15:47:18;74023.38;;;-142.53;86.48
4133;BME280;2080;51.038;7.008;2023-03-31T15:50:07;74042.78;;;-142.53;88.25
4133;BME280;2080;51.038;7.008;2023-03-31T15:52:38;74083.56;;;-142.53;95.09
4133;BME280;2080;51.038;7.008;2023-03-31T15:55:38;74079.66;;;-142.53;93.49
4133;BME280;2080;51.038;7.008;2023-03-31T15:58:04;74060.25;;;-142.53;93.63
4133;BME280;2080;51.038;7.008;2023-03-31T16:03:03;74064.16;;;-142.53;92.33
4133;BME280;2080;51.038;7.008;2023-03-31T16:05:38;73990.38;;;-142.53;90.85
4133;BME280;2080;51.038;7.008;2023-03-31T16:08:10;73969.03;;;-142.53;88.92
4133;BME280;2080;51.038;7.008;2023-03-31T16:10:40;73978.75;;;-142.53;91.25
4133;BME280;2080;51.038;7.008;2023-03-31T16:13:08;74005.91;;;-142.53;90.98
4133;BME280;2080;51.038;7.008;2023-03-31T16:15:43;73961.28;;;-142.53;89.89